sensor_id;sensor_type;location;lat;lon;timestamp;P1;durP1;ratioP1;P2;durP2;ratioP2
20906;SDS011;10613;50.966;5.814;2022-08-19T00:02:58;4.00;;;4.00;;
20906;SDS011;10613;50.966;5.814;2022-08-19T00:07:06;3.50;;;3.50;;
20906;SDS011;10613;50.966;5.814;2022-08-19T00:11:13;6.25;;;6.25;;
20906;SDS011;10613;50.966;5.814;2022-08-19T00:15:20;4.00;;;3.25;;
20906;SDS011;10613;50.966;5.814;2022-08-19T00:19:27;4.00;;;4.00;;
20906;SDS011;10613;50.966;5.814;2022-08-19T00:23:34;3.00;;;3.00;;
20906;SDS011;10613;50.966;5.814;2022-08-19T00:27:42;3.00;;;3.00;;
20906;SDS011;10613;50.966;5.814;2022-08-19T00:31:49;4.00;;;4.00;;
20906;SDS011;10613;50.966;5.814;2022-08-19T00:36:02;2.00;;;2.00;;
20906;SDS011;10613;50.966;5.814;2022-08-19T00:40:11;3.75;;;3.75;;
20906;SDS011;10613;50.966;5.814;2022-08-19T00:44:21;6.75;;;6.00;;
20906;SDS011;10613;50.966;5.814;2022-08-19T00:48:35;5.50;;;5.50;;
20906;SDS011;10613;50.966;5.814;2022-08-19T00:52:45;4.50;;;4.50;;
20906;SDS011;10613;50.966;5.814;2022-08-19T00:56:52;6.00;;;6.00;;
20906;SDS011;10613;50.966;5.814;2022-08-19T01:01:01;3.50;;;3.50;;
20906;SDS011;10613;50.966;5.814;2022-08-19T01:05:13;3.75;;;3.75;;
20906;SDS011;10613;50.966;5.814;2022-08-19T01:09:21;6.00;;;6.00;;
20906;SDS011;10613;50.966;5.814;2022-08-19T01:13:29;3.75;;;3.75;;
20906;SDS011;10613;50.966;5.814;2022-08-19T01:17:38;2.25;;;2.25;;
20906;SDS011;10613;50.966;5.814;2022-08-19T01:21:47;4.50;;;4.50;;
20906;SDS011;10613;50.966;5.814;2022-08-19T01:25:56;2.25;;;2.25;;
20906;SDS011;10613;50.966;5.814;2022-08-19T01:30:03;6.75;;;5.00;;
20906;SDS011;10613;50.966;5.814;2022-08-19T01:34:10;3.00;;;3.00;;
20906;SDS011;10613;50.966;5.814;2022-08-19T01:38:25;5.00;;;5.00;;
20906;SDS011;10613;50.966;5.814;2022-08-19T01:42:32;3.50;;;3.50;;
20906;SDS011;10613;50.966;5.814;2022-08-19T01:46:39;3.25;;;3.25;;
20906;SDS011;10613;50.966;5.814;2022-08-19T01:50:53;5.00;;;3.50;;
20906;SDS011;10613;50.966;5.814;2022-08-19T01:55:08;2.75;;;2.75;;
20906;SDS011;10613;50.966;5.814;2022-08-19T01:59:16;5.00;;;5.00;;
20906;SDS011;10613;50.966;5.814;2022-08-19T02:03:23;6.00;;;6.00;;
20906;SDS011;10613;50.966;5.814;2022-08-19T02:07:30;3.50;;;3.50;;
20906;SDS011;10613;50.966;5.814;2022-08-19T02:11:39;4.00;;;4.00;;
20906;SDS011;10613;50.966;5.814;2022-08-19T02:15:47;6.50;;;4.00;;
20906;SDS011;10613;50.966;5.814;2022-08-19T02:19:57;6.00;;;6.00;;
20906;SDS011;10613;50.966;5.814;2022-08-19T02:24:05;4.00;;;4.00;;
20906;SDS011;10613;50.966;5.814;2022-08-19T02:28:12;4.50;;;4.50;;
20906;SDS011;10613;50.966;5.814;2022-08-19T02:32:19;5.00;;;5.00;;
20906;SDS011;10613;50.966;5.814;2022-08-19T02:36:26;4.00;;;4.00;;
20906;SDS011;10613;50.966;5.814;2022-08-19T02:40:34;4.00;;;4.00;;
20906;SDS011;10613;50.966;5.814;2022-08-19T02:44:41;6.00;;;6.00;;
20906;SDS011;10613;50.966;5.814;2022-08-19T02:48:56;3.25;;;3.25;;
20906;SDS011;10613;50.966;5.814;2022-08-19T02:53:03;3.00;;;3.00;;
20906;SDS011;10613;50.966;5.814;2022-08-19T02:57:10;5.00;;;5.00;;
20906;SDS011;10613;50.966;5.814;2022-08-19T03:01:22;4.00;;;4.00;;
20906;SDS011;10613;50.966;5.814;2022-08-19T03:05:29;3.00;;;3.00;;
20906;SDS011;10613;50.966;5.814;2022-08-19T03:09:36;3.50;;;3.50;;
20906;SDS011;10613;50.966;5.814;2022-08-19T03:13:43;4.50;;;4.50;;
20906;SDS011;10613;50.966;5.814;2022-08-19T03:17:50;3.25;;;3.25;;
20906;SDS011;10613;50.966;5.814;2022-08-19T03:21:57;4.00;;;3.75;;
20906;SDS011;10613;50.966;5.814;2022-08-19T03:26:04;6.00;;;6.00;;
20906;SDS011;10613;50.966;5.814;2022-08-19T03:30:12;6.00;;;6.00;;
20906;SDS011;10613;50.966;5.814;2022-08-19T03:34:23;6.50;;;6.50;;
20906;SDS011;10613;50.966;5.814;2022-08-19T03:38:32;6.00;;;6.00;;
20906;SDS011;10613;50.966;5.814;2022-08-19T03:42:39;3.75;;;3.75;;
20906;SDS011;10613;50.966;5.814;2022-08-19T03:46:56;3.75;;;3.75;;
20906;SDS011;10613;50.966;5.814;2022-08-19T03:51:17;5.50;;;5.50;;
20906;SDS011;10613;50.966;5.814;2022-08-19T03:55:25;5.50;;;5.50;;
20906;SDS011;10613;50.966;5.814;2022-08-19T03:59:33;6.00;;;6.00;;
20906;SDS011;10613;50.966;5.814;2022-08-19T04:03:40;7.50;;;7.50;;
20906;SDS011;10613;50.966;5.814;2022-08-19T04:07:47;7.25;;;6.25;;
20906;SDS011;10613;50.966;5.814;2022-08-19T04:11:55;6.00;;;6.00;;
20906;SDS011;10613;50.966;5.814;2022-08-19T04:16:02;6.00;;;6.00;;
20906;SDS011;10613;50.966;5.814;2022-08-19T04:20:10;3.75;;;3.50;;
20906;SDS011;10613;50.966;5.814;2022-08-19T04:24:18;8.25;;;6.50;;
20906;SDS011;10613;50.966;5.814;2022-08-19T04:28:25;4.00;;;4.00;;
20906;SDS011;10613;50.966;5.814;2022-08-19T04:32:32;5.00;;;5.00;;
20906;SDS011;10613;50.966;5.814;2022-08-19T04:36:41;3.75;;;3.75;;
20906;SDS011;10613;50.966;5.814;2022-08-19T04:40:49;6.00;;;6.00;;
20906;SDS011;10613;50.966;5.814;2022-08-19T04:45:15;5.50;;;5.50;;
20906;SDS011;10613;50.966;5.814;2022-08-19T04:49:29;5.25;;;5.25;;
20906;SDS011;10613;50.966;5.814;2022-08-19T04:53:37;2.75;;;2.75;;
20906;SDS011;10613;50.966;5.814;2022-08-19T04:57:43;5.50;;;4.25;;
20906;SDS011;10613;50.966;5.814;2022-08-19T05:01:50;6.00;;;6.00;;
20906;SDS011;10613;50.966;5.814;2022-08-19T05:05:57;5.75;;;5.75;;
20906;SDS011;10613;50.966;5.814;2022-08-19T05:10:05;7.25;;;6.25;;
20906;SDS011;10613;50.966;5.814;2022-08-19T05:14:12;4.75;;;4.75;;
20906;SDS011;10613;50.966;5.814;2022-08-19T05:18:19;3.75;;;3.75;;
20906;SDS011;10613;50.966;5.814;2022-08-19T05:22:45;3.25;;;3.00;;
20906;SDS011;10613;50.966;5.814;2022-08-19T05:26:53;6.75;;;6.75;;
20906;SDS011;10613;50.966;5.814;2022-08-19T05:31:02;6.50;;;4.00;;
20906;SDS011;10613;50.966;5.814;2022-08-19T05:35:10;3.00;;;3.00;;
20906;SDS011;10613;50.966;5.814;2022-08-19T05:39:19;4.00;;;4.00;;
20906;SDS011;10613;50.966;5.814;2022-08-19T05:43:26;6.00;;;6.00;;
20906;SDS011;10613;50.966;5.814;2022-08-19T05:47:33;8.25;;;6.25;;
20906;SDS011;10613;50.966;5.814;2022-08-19T05:51:47;6.75;;;6.75;;
20906;SDS011;10613;50.966;5.814;2022-08-19T05:55:54;6.00;;;6.00;;
20906;SDS011;10613;50.966;5.814;2022-08-19T06:00:03;6.00;;;5.00;;
20906;SDS011;10613;50.966;5.814;2022-08-19T06:04:14;7.00;;;6.50;;
20906;SDS011;10613;50.966;5.814;2022-08-19T06:08:21;7.25;;;7.25;;
20906;SDS011;10613;50.966;5.814;2022-08-19T06:12:33;3.50;;;3.50;;
20906;SDS011;10613;50.966;5.814;2022-08-19T06:16:41;6.25;;;6.00;;
20906;SDS011;10613;50.966;5.814;2022-08-19T06:20:47;6.00;;;5.00;;
20906;SDS011;10613;50.966;5.814;2022-08-19T06:24:55;4.00;;;4.00;;
20906;SDS011;10613;50.966;5.814;2022-08-19T06:29:03;3.75;;;3.75;;
20906;SDS011;10613;50.966;5.814;2022-08-19T06:33:10;4.50;;;4.50;;
20906;SDS011;10613;50.966;5.814;2022-08-19T06:37:17;6.00;;;6.00;;
20906;SDS011;10613;50.966;5.814;2022-08-19T06:41:25;6.50;;;5.00;;
20906;SDS011;10613;50.966;5.814;2022-08-19T06:45:32;7.25;;;7.25;;
20906;SDS011;10613;50.966;5.814;2022-08-19T06:49:47;4.00;;;4.00;;
20906;SDS011;10613;50.966;5.814;2022-08-19T06:53:55;4.00;;;4.00;;
20906;SDS011;10613;50.966;5.814;2022-08-19T06:58:02;3.25;;;3.25;;
20906;SDS011;10613;50.966;5.814;2022-08-19T07:02:09;6.75;;;5.50;;
20906;SDS011;10613;50.966;5.814;2022-08-19T07:06:17;7.50;;;4.50;;
20906;SDS011;10613;50.966;5.814;2022-08-19T07:10:24;8.25;;;6.00;;
20906;SDS011;10613;50.966;5.814;2022-08-19T07:14:32;30.75;;;25.50;;
20906;SDS011;10613;50.966;5.814;2022-08-19T07:18:43;31.00;;;29.75;;
20906;SDS011;10613;50.966;5.814;2022-08-19T07:22:50;31.25;;;23.75;;
20906;SDS011;10613;50.966;5.814;2022-08-19T07:26:58;25.00;;;23.50;;
20906;SDS011;10613;50.966;5.814;2022-08-19T07:31:07;18.75;;;15.00;;
20906;SDS011;10613;50.966;5.814;2022-08-19T07:35:13;16.75;;;15.00;;
20906;SDS011;10613;50.966;5.814;2022-08-19T07:39:23;20.75;;;17.50;;
20906;SDS011;10613;50.966;5.814;2022-08-19T07:43:31;16.75;;;16.00;;
20906;SDS011;10613;50.966;5.814;2022-08-19T07:47:37;12.50;;;10.50;;
20906;SDS011;10613;50.966;5.814;2022-08-19T07:51:58;22.25;;;19.25;;
20906;SDS011;10613;50.966;5.814;2022-08-19T07:56:07;10.25;;;9.75;;
20906;SDS011;10613;50.966;5.814;2022-08-19T08:00:15;9.75;;;9.00;;
20906;SDS011;10613;50.966;5.814;2022-08-19T08:04:22;25.75;;;19.75;;
20906;SDS011;10613;50.966;5.814;2022-08-19T08:08:46;22.75;;;19.75;;
20906;SDS011;10613;50.966;5.814;2022-08-19T08:13:12;19.50;;;19.25;;
20906;SDS011;10613;50.966;5.814;2022-08-19T08:17:20;7.75;;;7.75;;
20906;SDS011;10613;50.966;5.814;2022-08-19T08:21:27;12.75;;;10.50;;
20906;SDS011;10613;50.966;5.814;2022-08-19T08:25:35;22.50;;;21.25;;
20906;SDS011;10613;50.966;5.814;2022-08-19T08:29:42;13.25;;;12.75;;
20906;SDS011;10613;50.966;5.814;2022-08-19T08:33:57;10.75;;;10.50;;
20906;SDS011;10613;50.966;5.814;2022-08-19T08:38:05;22.75;;;22.75;;
20906;SDS011;10613;50.966;5.814;2022-08-19T08:42:28;19.00;;;18.00;;
20906;SDS011;10613;50.966;5.814;2022-08-19T08:46:42;19.75;;;19.50;;
20906;SDS011;10613;50.966;5.814;2022-08-19T08:51:09;23.00;;;20.50;;
20906;SDS011;10613;50.966;5.814;2022-08-19T08:55:24;15.75;;;15.75;;
20906;SDS011;10613;50.966;5.814;2022-08-19T08:59:33;6.00;;;6.00;;
20906;SDS011;10613;50.966;5.814;2022-08-19T09:03:41;7.25;;;7.00;;
20906;SDS011;10613;50.966;5.814;2022-08-19T09:07:52;5.50;;;5.00;;
20906;SDS011;10613;50.966;5.814;2022-08-19T09:16:09;6.00;;;6.00;;
20906;SDS011;10613;50.966;5.814;2022-08-19T09:20:21;17.00;;;16.50;;
20906;SDS011;10613;50.966;5.814;2022-08-19T09:24:28;10.00;;;8.50;;
20906;SDS011;10613;50.966;5.814;2022-08-19T09:28:35;8.50;;;8.00;;
20906;SDS011;10613;50.966;5.814;2022-08-19T09:32:43;7.00;;;7.00;;
20906;SDS011;10613;50.966;5.814;2022-08-19T09:36:50;8.25;;;7.50;;
20906;SDS011;10613;50.966;5.814;2022-08-19T09:41:04;6.00;;;6.00;;
20906;SDS011;10613;50.966;5.814;2022-08-19T09:45:11;6.00;;;6.00;;
20906;SDS011;10613;50.966;5.814;2022-08-19T09:49:32;9.00;;;8.00;;
20906;SDS011;10613;50.966;5.814;2022-08-19T09:53:39;5.50;;;5.50;;
20906;SDS011;10613;50.966;5.814;2022-08-19T09:57:46;5.25;;;5.25;;
20906;SDS011;10613;50.966;5.814;2022-08-19T10:01:53;8.00;;;8.00;;
20906;SDS011;10613;50.966;5.814;2022-08-19T10:06:01;6.25;;;6.25;;
20906;SDS011;10613;50.966;5.814;2022-08-19T10:10:08;10.50;;;8.75;;
20906;SDS011;10613;50.966;5.814;2022-08-19T10:14:16;7.75;;;7.75;;
20906;SDS011;10613;50.966;5.814;2022-08-19T10:18:24;11.00;;;10.25;;
20906;SDS011;10613;50.966;5.814;2022-08-19T10:22:31;8.00;;;8.00;;
20906;SDS011;10613;50.966;5.814;2022-08-19T10:26:39;6.75;;;6.75;;
20906;SDS011;10613;50.966;5.814;2022-08-19T10:30:48;4.00;;;4.00;;
20906;SDS011;10613;50.966;5.814;2022-08-19T10:34:55;8.00;;;8.00;;
20906;SDS011;10613;50.966;5.814;2022-08-19T10:39:05;8.50;;;7.75;;
20906;SDS011;10613;50.966;5.814;2022-08-19T10:43:12;8.50;;;8.50;;
20906;SDS011;10613;50.966;5.814;2022-08-19T10:47:19;9.00;;;9.00;;
20906;SDS011;10613;50.966;5.814;2022-08-19T10:51:33;8.00;;;8.00;;
20906;SDS011;10613;50.966;5.814;2022-08-19T10:55:58;8.00;;;7.00;;
20906;SDS011;10613;50.966;5.814;2022-08-19T11:00:23;6.75;;;6.25;;
20906;SDS011;10613;50.966;5.814;2022-08-19T11:04:32;6.00;;;6.00;;
20906;SDS011;10613;50.966;5.814;2022-08-19T11:08:40;6.00;;;4.00;;
20906;SDS011;10613;50.966;5.814;2022-08-19T11:12:50;6.00;;;6.00;;
20906;SDS011;10613;50.966;5.814;2022-08-19T11:17:00;2.50;;;2.50;;
20906;SDS011;10613;50.966;5.814;2022-08-19T11:21:08;3.00;;;3.00;;
20906;SDS011;10613;50.966;5.814;2022-08-19T11:25:15;4.00;;;3.00;;
20906;SDS011;10613;50.966;5.814;2022-08-19T11:29:22;6.50;;;6.50;;
20906;SDS011;10613;50.966;5.814;2022-08-19T11:33:32;4.50;;;4.50;;
20906;SDS011;10613;50.966;5.814;2022-08-19T11:37:39;2.00;;;2.00;;
20906;SDS011;10613;50.966;5.814;2022-08-19T11:41:46;6.00;;;6.00;;
20906;SDS011;10613;50.966;5.814;2022-08-19T11:45:53;7.00;;;7.00;;
20906;SDS011;10613;50.966;5.814;2022-08-19T11:50:07;3.25;;;2.25;;
20906;SDS011;10613;50.966;5.814;2022-08-19T11:54:14;2.00;;;2.00;;
20906;SDS011;10613;50.966;5.814;2022-08-19T11:58:22;7.50;;;7.50;;
20906;SDS011;10613;50.966;5.814;2022-08-19T12:02:29;2.50;;;2.50;;
20906;SDS011;10613;50.966;5.814;2022-08-19T12:06:37;4.00;;;4.00;;
20906;SDS011;10613;50.966;5.814;2022-08-19T12:10:44;2.75;;;2.75;;
20906;SDS011;10613;50.966;5.814;2022-08-19T12:14:52;3.00;;;3.00;;
20906;SDS011;10613;50.966;5.814;2022-08-19T12:19:04;3.00;;;3.00;;
20906;SDS011;10613;50.966;5.814;2022-08-19T12:23:11;3.00;;;3.00;;
20906;SDS011;10613;50.966;5.814;2022-08-19T12:27:18;2.50;;;2.50;;
20906;SDS011;10613;50.966;5.814;2022-08-19T12:31:26;2.75;;;2.75;;
20906;SDS011;10613;50.966;5.814;2022-08-19T12:35:41;1.25;;;1.25;;
20906;SDS011;10613;50.966;5.814;2022-08-19T12:39:49;2.00;;;2.00;;
20906;SDS011;10613;50.966;5.814;2022-08-19T12:43:56;3.00;;;3.00;;
20906;SDS011;10613;50.966;5.814;2022-08-19T12:48:10;2.75;;;2.00;;
20906;SDS011;10613;50.966;5.814;2022-08-19T12:52:17;3.00;;;3.00;;
20906;SDS011;10613;50.966;5.814;2022-08-19T12:56:27;3.75;;;3.00;;
20906;SDS011;10613;50.966;5.814;2022-08-19T13:00:34;3.75;;;3.75;;
20906;SDS011;10613;50.966;5.814;2022-08-19T13:04:41;2.00;;;2.00;;
20906;SDS011;10613;50.966;5.814;2022-08-19T13:08:48;4.00;;;4.00;;
20906;SDS011;10613;50.966;5.814;2022-08-19T13:12:55;4.00;;;4.00;;
20906;SDS011;10613;50.966;5.814;2022-08-19T13:17:02;3.75;;;3.75;;
20906;SDS011;10613;50.966;5.814;2022-08-19T13:21:09;3.75;;;3.75;;
20906;SDS011;10613;50.966;5.814;2022-08-19T13:25:18;6.00;;;6.00;;
20906;SDS011;10613;50.966;5.814;2022-08-19T13:29:26;3.00;;;3.00;;
20906;SDS011;10613;50.966;5.814;2022-08-19T13:33:51;6.00;;;6.00;;
20906;SDS011;10613;50.966;5.814;2022-08-19T13:37:58;4.00;;;4.00;;
20906;SDS011;10613;50.966;5.814;2022-08-19T13:42:05;1.75;;;1.75;;
20906;SDS011;10613;50.966;5.814;2022-08-19T13:46:13;4.00;;;4.00;;
20906;SDS011;10613;50.966;5.814;2022-08-19T13:50:22;3.00;;;3.00;;
20906;SDS011;10613;50.966;5.814;2022-08-19T13:54:32;2.00;;;2.00;;
20906;SDS011;10613;50.966;5.814;2022-08-19T13:58:39;2.00;;;2.00;;
20906;SDS011;10613;50.966;5.814;2022-08-19T14:02:46;3.00;;;3.00;;
20906;SDS011;10613;50.966;5.814;2022-08-19T14:06:54;4.00;;;4.00;;
20906;SDS011;10613;50.966;5.814;2022-08-19T14:11:01;2.00;;;2.00;;
20906;SDS011;10613;50.966;5.814;2022-08-19T14:15:08;3.00;;;3.00;;
20906;SDS011;10613;50.966;5.814;2022-08-19T14:19:16;3.75;;;3.75;;
20906;SDS011;10613;50.966;5.814;2022-08-19T14:23:23;3.25;;;3.25;;
20906;SDS011;10613;50.966;5.814;2022-08-19T14:27:32;3.00;;;3.00;;
20906;SDS011;10613;50.966;5.814;2022-08-19T14:31:39;4.50;;;4.50;;
20906;SDS011;10613;50.966;5.814;2022-08-19T14:35:47;3.75;;;3.00;;
20906;SDS011;10613;50.966;5.814;2022-08-19T14:39:54;2.00;;;2.00;;
20906;SDS011;10613;50.966;5.814;2022-08-19T14:44:01;3.00;;;3.00;;
20906;SDS011;10613;50.966;5.814;2022-08-19T14:48:08;3.00;;;3.00;;
20906;SDS011;10613;50.966;5.814;2022-08-19T14:52:22;3.00;;;3.00;;
20906;SDS011;10613;50.966;5.814;2022-08-19T14:56:29;2.00;;;2.00;;
20906;SDS011;10613;50.966;5.814;2022-08-19T15:00:37;3.75;;;2.25;;
20906;SDS011;10613;50.966;5.814;2022-08-19T15:04:44;3.00;;;3.00;;
20906;SDS011;10613;50.966;5.814;2022-08-19T15:08:51;3.00;;;3.00;;
20906;SDS011;10613;50.966;5.814;2022-08-19T15:12:59;3.00;;;3.00;;
20906;SDS011;10613;50.966;5.814;2022-08-19T15:17:06;6.00;;;6.00;;
20906;SDS011;10613;50.966;5.814;2022-08-19T15:21:13;2.00;;;2.00;;
20906;SDS011;10613;50.966;5.814;2022-08-19T15:25:21;4.50;;;4.50;;
20906;SDS011;10613;50.966;5.814;2022-08-19T15:29:28;3.25;;;3.25;;
20906;SDS011;10613;50.966;5.814;2022-08-19T15:33:35;4.00;;;4.00;;
20906;SDS011;10613;50.966;5.814;2022-08-19T15:37:49;1.25;;;1.25;;
20906;SDS011;10613;50.966;5.814;2022-08-19T15:41:56;4.00;;;4.00;;
20906;SDS011;10613;50.966;5.814;2022-08-19T15:46:03;2.00;;;2.00;;
20906;SDS011;10613;50.966;5.814;2022-08-19T15:50:19;4.00;;;4.00;;
20906;SDS011;10613;50.966;5.814;2022-08-19T15:54:29;2.50;;;2.50;;
20906;SDS011;10613;50.966;5.814;2022-08-19T15:58:36;3.00;;;3.00;;
20906;SDS011;10613;50.966;5.814;2022-08-19T16:03:02;3.75;;;3.75;;
20906;SDS011;10613;50.966;5.814;2022-08-19T16:07:27;4.00;;;4.00;;
20906;SDS011;10613;50.966;5.814;2022-08-19T16:11:34;3.00;;;3.00;;
20906;SDS011;10613;50.966;5.814;2022-08-19T16:15:42;6.00;;;6.00;;
20906;SDS011;10613;50.966;5.814;2022-08-19T16:19:50;3.75;;;3.75;;
20906;SDS011;10613;50.966;5.814;2022-08-19T16:24:02;3.00;;;3.00;;
20906;SDS011;10613;50.966;5.814;2022-08-19T16:28:09;2.25;;;2.25;;
20906;SDS011;10613;50.966;5.814;2022-08-19T16:32:16;6.00;;;6.00;;
20906;SDS011;10613;50.966;5.814;2022-08-19T16:36:23;2.75;;;2.75;;
20906;SDS011;10613;50.966;5.814;2022-08-19T16:40:30;4.00;;;4.00;;
20906;SDS011;10613;50.966;5.814;2022-08-19T16:44:42;4.00;;;4.00;;
20906;SDS011;10613;50.966;5.814;2022-08-19T16:48:49;2.50;;;2.50;;
20906;SDS011;10613;50.966;5.814;2022-08-19T16:53:05;4.00;;;4.00;;
20906;SDS011;10613;50.966;5.814;2022-08-19T16:57:12;2.00;;;2.00;;
20906;SDS011;10613;50.966;5.814;2022-08-19T17:01:19;6.75;;;6.75;;
20906;SDS011;10613;50.966;5.814;2022-08-19T17:05:26;2.25;;;2.25;;
20906;SDS011;10613;50.966;5.814;2022-08-19T17:09:33;3.25;;;3.25;;
20906;SDS011;10613;50.966;5.814;2022-08-19T17:13:40;2.25;;;2.00;;
20906;SDS011;10613;50.966;5.814;2022-08-19T17:17:47;3.00;;;3.00;;
20906;SDS011;10613;50.966;5.814;2022-08-19T17:21:54;4.00;;;4.00;;
20906;SDS011;10613;50.966;5.814;2022-08-19T17:26:02;3.00;;;3.00;;
20906;SDS011;10613;50.966;5.814;2022-08-19T17:30:10;3.00;;;3.00;;
20906;SDS011;10613;50.966;5.814;2022-08-19T17:34:17;6.00;;;6.00;;
20906;SDS011;10613;50.966;5.814;2022-08-19T17:38:24;3.00;;;3.00;;
20906;SDS011;10613;50.966;5.814;2022-08-19T17:42:31;2.00;;;2.00;;
20906;SDS011;10613;50.966;5.814;2022-08-19T17:46:38;3.25;;;3.25;;
20906;SDS011;10613;50.966;5.814;2022-08-19T17:50:52;2.00;;;2.00;;
20906;SDS011;10613;50.966;5.814;2022-08-19T17:54:59;2.00;;;2.00;;
20906;SDS011;10613;50.966;5.814;2022-08-19T17:59:06;2.00;;;2.00;;
20906;SDS011;10613;50.966;5.814;2022-08-19T18:03:13;3.00;;;3.00;;
20906;SDS011;10613;50.966;5.814;2022-08-19T18:07:21;3.00;;;3.00;;
20906;SDS011;10613;50.966;5.814;2022-08-19T18:11:28;2.25;;;2.25;;
20906;SDS011;10613;50.966;5.814;2022-08-19T18:15:35;2.00;;;2.00;;
20906;SDS011;10613;50.966;5.814;2022-08-19T18:19:42;4.00;;;4.00;;
20906;SDS011;10613;50.966;5.814;2022-08-19T18:23:49;3.00;;;3.00;;
20906;SDS011;10613;50.966;5.814;2022-08-19T18:27:57;4.00;;;4.00;;
20906;SDS011;10613;50.966;5.814;2022-08-19T18:32:05;2.00;;;2.00;;
20906;SDS011;10613;50.966;5.814;2022-08-19T18:36:18;5.00;;;5.00;;
20906;SDS011;10613;50.966;5.814;2022-08-19T18:40:26;4.00;;;4.00;;
20906;SDS011;10613;50.966;5.814;2022-08-19T18:44:52;3.75;;;3.75;;
20906;SDS011;10613;50.966;5.814;2022-08-19T18:49:20;3.50;;;3.50;;
20906;SDS011;10613;50.966;5.814;2022-08-19T18:53:35;3.00;;;3.00;;
20906;SDS011;10613;50.966;5.814;2022-08-19T18:57:43;2.25;;;2.25;;
20906;SDS011;10613;50.966;5.814;2022-08-19T19:01:51;6.00;;;6.00;;
20906;SDS011;10613;50.966;5.814;2022-08-19T19:05:59;6.75;;;6.75;;
20906;SDS011;10613;50.966;5.814;2022-08-19T19:10:07;3.00;;;3.00;;
20906;SDS011;10613;50.966;5.814;2022-08-19T19:14:22;3.00;;;3.00;;
20906;SDS011;10613;50.966;5.814;2022-08-19T19:18:30;2.75;;;2.75;;
20906;SDS011;10613;50.966;5.814;2022-08-19T19:22:38;2.00;;;2.00;;
20906;SDS011;10613;50.966;5.814;2022-08-19T19:26:46;3.00;;;3.00;;
20906;SDS011;10613;50.966;5.814;2022-08-19T19:30:54;5.50;;;5.50;;
20906;SDS011;10613;50.966;5.814;2022-08-19T19:35:04;2.50;;;2.50;;
20906;SDS011;10613;50.966;5.814;2022-08-19T19:39:11;3.00;;;3.00;;
20906;SDS011;10613;50.966;5.814;2022-08-19T19:43:18;4.50;;;4.50;;
20906;SDS011;10613;50.966;5.814;2022-08-19T19:47:25;3.00;;;3.00;;
20906;SDS011;10613;50.966;5.814;2022-08-19T19:51:34;2.00;;;2.00;;
20906;SDS011;10613;50.966;5.814;2022-08-19T19:55:47;3.50;;;3.50;;
20906;SDS011;10613;50.966;5.814;2022-08-19T19:59:54;3.00;;;3.00;;
20906;SDS011;10613;50.966;5.814;2022-08-19T20:04:04;2.00;;;2.00;;
20906;SDS011;10613;50.966;5.814;2022-08-19T20:08:11;3.75;;;3.75;;
20906;SDS011;10613;50.966;5.814;2022-08-19T20:12:37;3.00;;;3.00;;
20906;SDS011;10613;50.966;5.814;2022-08-19T20:16:45;2.25;;;2.25;;
20906;SDS011;10613;50.966;5.814;2022-08-19T20:20:51;2.25;;;2.25;;
20906;SDS011;10613;50.966;5.814;2022-08-19T20:24:58;3.25;;;3.25;;
20906;SDS011;10613;50.966;5.814;2022-08-19T20:29:07;3.50;;;3.50;;
20906;SDS011;10613;50.966;5.814;2022-08-19T20:33:13;3.00;;;3.00;;
20906;SDS011;10613;50.966;5.814;2022-08-19T20:37:20;2.00;;;2.00;;
20906;SDS011;10613;50.966;5.814;2022-08-19T20:41:27;2.75;;;2.75;;
20906;SDS011;10613;50.966;5.814;2022-08-19T20:45:35;3.00;;;3.00;;
20906;SDS011;10613;50.966;5.814;2022-08-19T20:49:49;3.00;;;3.00;;
20906;SDS011;10613;50.966;5.814;2022-08-19T20:53:57;2.00;;;2.00;;
20906;SDS011;10613;50.966;5.814;2022-08-19T20:58:04;3.50;;;3.50;;
20906;SDS011;10613;50.966;5.814;2022-08-19T21:02:12;3.25;;;3.25;;
20906;SDS011;10613;50.966;5.814;2022-08-19T21:06:18;7.25;;;7.25;;
20906;SDS011;10613;50.966;5.814;2022-08-19T21:10:25;3.00;;;3.00;;
20906;SDS011;10613;50.966;5.814;2022-08-19T21:14:36;2.50;;;2.50;;
20906;SDS011;10613;50.966;5.814;2022-08-19T21:18:43;2.75;;;2.75;;
20906;SDS011;10613;50.966;5.814;2022-08-19T21:22:50;3.00;;;3.00;;
20906;SDS011;10613;50.966;5.814;2022-08-19T21:26:57;2.00;;;2.00;;
20906;SDS011;10613;50.966;5.814;2022-08-19T21:31:05;3.00;;;3.00;;
20906;SDS011;10613;50.966;5.814;2022-08-19T21:35:12;2.50;;;2.50;;
20906;SDS011;10613;50.966;5.814;2022-08-19T21:39:19;2.75;;;2.75;;
20906;SDS011;10613;50.966;5.814;2022-08-19T21:43:26;3.25;;;3.25;;
20906;SDS011;10613;50.966;5.814;2022-08-19T21:47:33;3.75;;;3.75;;
20906;SDS011;10613;50.966;5.814;2022-08-19T21:51:40;2.75;;;2.75;;
20906;SDS011;10613;50.966;5.814;2022-08-19T21:55:54;3.25;;;3.25;;
20906;SDS011;10613;50.966;5.814;2022-08-19T22:00:04;2.25;;;2.25;;
20906;SDS011;10613;50.966;5.814;2022-08-19T22:04:11;3.25;;;3.25;;
20906;SDS011;10613;50.966;5.814;2022-08-19T22:08:18;6.00;;;6.00;;
20906;SDS011;10613;50.966;5.814;2022-08-19T22:12:27;4.00;;;4.00;;
20906;SDS011;10613;50.966;5.814;2022-08-19T22:16:34;2.75;;;2.75;;
20906;SDS011;10613;50.966;5.814;2022-08-19T22:20:42;2.50;;;2.50;;
20906;SDS011;10613;50.966;5.814;2022-08-19T22:24:49;2.50;;;2.50;;
20906;SDS011;10613;50.966;5.814;2022-08-19T22:28:56;3.00;;;3.00;;
20906;SDS011;10613;50.966;5.814;2022-08-19T22:33:06;2.00;;;2.00;;
20906;SDS011;10613;50.966;5.814;2022-08-19T22:37:13;2.75;;;2.75;;
20906;SDS011;10613;50.966;5.814;2022-08-19T22:41:21;4.00;;;4.00;;
20906;SDS011;10613;50.966;5.814;2022-08-19T22:45:28;3.00;;;3.00;;
20906;SDS011;10613;50.966;5.814;2022-08-19T22:49:43;3.00;;;3.00;;
20906;SDS011;10613;50.966;5.814;2022-08-19T22:53:49;3.75;;;3.75;;
20906;SDS011;10613;50.966;5.814;2022-08-19T22:57:56;3.00;;;3.00;;
20906;SDS011;10613;50.966;5.814;2022-08-19T23:02:05;3.00;;;3.00;;
20906;SDS011;10613;50.966;5.814;2022-08-19T23:06:13;2.00;;;2.00;;
20906;SDS011;10613;50.966;5.814;2022-08-19T23:10:20;3.75;;;3.75;;
20906;SDS011;10613;50.966;5.814;2022-08-19T23:14:30;2.00;;;2.00;;
20906;SDS011;10613;50.966;5.814;2022-08-19T23:18:37;2.50;;;2.50;;
20906;SDS011;10613;50.966;5.814;2022-08-19T23:22:44;2.25;;;2.25;;
20906;SDS011;10613;50.966;5.814;2022-08-19T23:26:54;7.00;;;6.00;;
20906;SDS011;10613;50.966;5.814;2022-08-19T23:31:18;2.50;;;2.50;;
20906;SDS011;10613;50.966;5.814;2022-08-19T23:35:31;5.50;;;5.50;;
20906;SDS011;10613;50.966;5.814;2022-08-19T23:39:38;2.50;;;2.50;;
20906;SDS011;10613;50.966;5.814;2022-08-19T23:43:45;3.00;;;3.00;;
20906;SDS011;10613;50.966;5.814;2022-08-19T23:47:52;2.00;;;2.00;;
20906;SDS011;10613;50.966;5.814;2022-08-19T23:51:59;3.25;;;3.25;;
20906;SDS011;10613;50.966;5.814;2022-08-19T23:56:06;2.50;;;2.50;;
